sensor_id;sensor_type;location;lat;lon;timestamp;temperature;humidity
24682;DHT22;12802;53.390;-2.328;2023-05-07T00:00:17;13.90;99.90
24682;DHT22;12802;53.390;-2.328;2023-05-07T00:02:44;13.80;99.90
24682;DHT22;12802;53.390;-2.328;2023-05-07T00:05:10;13.90;99.90
24682;DHT22;12802;53.390;-2.328;2023-05-07T00:07:36;13.80;99.90
24682;DHT22;12802;53.390;-2.328;2023-05-07T00:10:02;13.90;99.90
24682;DHT22;12802;53.390;-2.328;2023-05-07T00:12:28;13.90;99.90
24682;DHT22;12802;53.390;-2.328;2023-05-07T00:14:57;13.90;99.90
24682;DHT22;12802;53.390;-2.328;2023-05-07T00:17:22;13.80;99.90
24682;DHT22;12802;53.390;-2.328;2023-05-07T00:19:48;13.80;99.90
24682;DHT22;12802;53.390;-2.328;2023-05-07T00:22:14;13.80;99.90
24682;DHT22;12802;53.390;-2.328;2023-05-07T00:24:39;13.90;99.90
24682;DHT22;12802;53.390;-2.328;2023-05-07T00:27:05;13.90;99.90
24682;DHT22;12802;53.390;-2.328;2023-05-07T00:29:31;13.90;99.90
24682;DHT22;12802;53.390;-2.328;2023-05-07T00:31:56;13.90;99.90
24682;DHT22;12802;53.390;-2.328;2023-05-07T00:34:22;13.90;99.90
24682;DHT22;12802;53.390;-2.328;2023-05-07T00:36:48;13.90;99.90
24682;DHT22;12802;53.390;-2.328;2023-05-07T00:39:13;13.90;99.90
24682;DHT22;12802;53.390;-2.328;2023-05-07T00:41:39;13.90;99.90
24682;DHT22;12802;53.390;-2.328;2023-05-07T00:44:05;13.90;99.90
24682;DHT22;12802;53.390;-2.328;2023-05-07T00:46:31;13.90;99.90
24682;DHT22;12802;53.390;-2.328;2023-05-07T00:48:57;13.90;99.90
24682;DHT22;12802;53.390;-2.328;2023-05-07T00:51:23;13.90;99.90
24682;DHT22;12802;53.390;-2.328;2023-05-07T00:53:49;13.90;99.90
24682;DHT22;12802;53.390;-2.328;2023-05-07T00:56:15;13.90;99.90
24682;DHT22;12802;53.390;-2.328;2023-05-07T00:58:41;13.90;99.90
24682;DHT22;12802;53.390;-2.328;2023-05-07T01:01:06;13.80;99.90
24682;DHT22;12802;53.390;-2.328;2023-05-07T01:03:33;13.90;99.90
24682;DHT22;12802;53.390;-2.328;2023-05-07T01:05:58;13.90;99.90
24682;DHT22;12802;53.390;-2.328;2023-05-07T01:08:25;13.90;99.90
24682;DHT22;12802;53.390;-2.328;2023-05-07T01:10:54;13.80;99.90
24682;DHT22;12802;53.390;-2.328;2023-05-07T01:13:20;13.80;99.90
24682;DHT22;12802;53.390;-2.328;2023-05-07T01:15:46;13.80;99.90
24682;DHT22;12802;53.390;-2.328;2023-05-07T01:18:12;13.70;99.90
24682;DHT22;12802;53.390;-2.328;2023-05-07T01:20:37;13.70;99.90
24682;DHT22;12802;53.390;-2.328;2023-05-07T01:23:03;13.70;99.90
24682;DHT22;12802;53.390;-2.328;2023-05-07T01:25:29;13.70;99.90
24682;DHT22;12802;53.390;-2.328;2023-05-07T01:27:58;13.70;99.90
24682;DHT22;12802;53.390;-2.328;2023-05-07T01:30:28;13.70;99.90
24682;DHT22;12802;53.390;-2.328;2023-05-07T01:33:03;13.80;99.90
24682;DHT22;12802;53.390;-2.328;2023-05-07T01:35:36;13.80;99.90
24682;DHT22;12802;53.390;-2.328;2023-05-07T01:38:02;13.70;99.90
24682;DHT22;12802;53.390;-2.328;2023-05-07T01:40:29;13.70;99.90
24682;DHT22;12802;53.390;-2.328;2023-05-07T01:42:55;13.70;99.90
24682;DHT22;12802;53.390;-2.328;2023-05-07T01:45:22;13.70;99.90
24682;DHT22;12802;53.390;-2.328;2023-05-07T01:47:48;13.70;99.90
24682;DHT22;12802;53.390;-2.328;2023-05-07T01:50:14;13.70;99.90
24682;DHT22;12802;53.390;-2.328;2023-05-07T01:52:41;13.70;99.90
24682;DHT22;12802;53.390;-2.328;2023-05-07T01:55:07;13.70;99.90
24682;DHT22;12802;53.390;-2.328;2023-05-07T01:57:32;13.70;99.90
24682;DHT22;12802;53.390;-2.328;2023-05-07T01:59:58;13.70;99.90
24682;DHT22;12802;53.390;-2.328;2023-05-07T02:02:24;13.70;99.90
24682;DHT22;12802;53.390;-2.328;2023-05-07T02:04:50;13.70;99.90
24682;DHT22;12802;53.390;-2.328;2023-05-07T02:07:17;13.70;99.90
24682;DHT22;12802;53.390;-2.328;2023-05-07T02:09:44;13.60;99.90
24682;DHT22;12802;53.390;-2.328;2023-05-07T02:12:09;13.60;99.90
24682;DHT22;12802;53.390;-2.328;2023-05-07T02:14:35;13.60;99.90
24682;DHT22;12802;53.390;-2.328;2023-05-07T02:17:01;13.60;99.90
24682;DHT22;12802;53.390;-2.328;2023-05-07T02:19:26;13.60;99.90
24682;DHT22;12802;53.390;-2.328;2023-05-07T02:21:53;13.60;99.90
24682;DHT22;12802;53.390;-2.328;2023-05-07T02:24:19;13.60;99.90
24682;DHT22;12802;53.390;-2.328;2023-05-07T02:26:45;13.60;99.90
24682;DHT22;12802;53.390;-2.328;2023-05-07T02:29:11;13.60;99.90
24682;DHT22;12802;53.390;-2.328;2023-05-07T02:31:37;13.60;99.90
24682;DHT22;12802;53.390;-2.328;2023-05-07T02:34:03;13.60;99.90
24682;DHT22;12802;53.390;-2.328;2023-05-07T02:36:29;13.60;99.90
24682;DHT22;12802;53.390;-2.328;2023-05-07T02:39:06;13.60;99.90
24682;DHT22;12802;53.390;-2.328;2023-05-07T02:41:31;13.60;99.90
24682;DHT22;12802;53.390;-2.328;2023-05-07T02:43:57;13.60;99.90
24682;DHT22;12802;53.390;-2.328;2023-05-07T02:46:23;13.60;99.90
24682;DHT22;12802;53.390;-2.328;2023-05-07T02:48:57;13.60;99.90
24682;DHT22;12802;53.390;-2.328;2023-05-07T02:51:22;13.60;99.90
24682;DHT22;12802;53.390;-2.328;2023-05-07T02:53:49;13.60;99.90
24682;DHT22;12802;53.390;-2.328;2023-05-07T02:56:14;13.60;99.90
24682;DHT22;12802;53.390;-2.328;2023-05-07T02:58:40;13.60;99.90
24682;DHT22;12802;53.390;-2.328;2023-05-07T03:01:08;13.60;99.90
24682;DHT22;12802;53.390;-2.328;2023-05-07T03:03:38;13.60;99.90
24682;DHT22;12802;53.390;-2.328;2023-05-07T03:06:04;13.60;99.90
24682;DHT22;12802;53.390;-2.328;2023-05-07T03:08:29;13.60;99.90
24682;DHT22;12802;53.390;-2.328;2023-05-07T03:10:55;13.60;99.90
24682;DHT22;12802;53.390;-2.328;2023-05-07T03:13:21;13.60;99.90
24682;DHT22;12802;53.390;-2.328;2023-05-07T03:15:47;13.60;99.90
24682;DHT22;12802;53.390;-2.328;2023-05-07T03:18:13;13.60;99.90
24682;DHT22;12802;53.390;-2.328;2023-05-07T03:20:39;13.60;99.90
24682;DHT22;12802;53.390;-2.328;2023-05-07T03:23:05;13.60;99.90
24682;DHT22;12802;53.390;-2.328;2023-05-07T03:25:31;13.60;99.90
24682;DHT22;12802;53.390;-2.328;2023-05-07T03:27:57;13.60;99.90
24682;DHT22;12802;53.390;-2.328;2023-05-07T03:30:26;13.60;99.90
24682;DHT22;12802;53.390;-2.328;2023-05-07T03:32:52;13.50;99.90
24682;DHT22;12802;53.390;-2.328;2023-05-07T03:35:18;13.50;99.90
24682;DHT22;12802;53.390;-2.328;2023-05-07T03:37:44;13.50;99.90
24682;DHT22;12802;53.390;-2.328;2023-05-07T03:40:11;13.50;99.90
24682;DHT22;12802;53.390;-2.328;2023-05-07T03:42:44;13.50;99.90
24682;DHT22;12802;53.390;-2.328;2023-05-07T03:45:10;13.40;99.90
24682;DHT22;12802;53.390;-2.328;2023-05-07T03:47:39;13.30;99.90
24682;DHT22;12802;53.390;-2.328;2023-05-07T03:50:05;13.30;99.90
24682;DHT22;12802;53.390;-2.328;2023-05-07T03:52:31;13.30;99.90
24682;DHT22;12802;53.390;-2.328;2023-05-07T03:55:00;13.20;99.90
24682;DHT22;12802;53.390;-2.328;2023-05-07T03:57:26;13.20;99.90
24682;DHT22;12802;53.390;-2.328;2023-05-07T03:59:51;13.20;99.90
24682;DHT22;12802;53.390;-2.328;2023-05-07T04:02:17;13.20;99.90
24682;DHT22;12802;53.390;-2.328;2023-05-07T04:04:43;13.10;99.90
24682;DHT22;12802;53.390;-2.328;2023-05-07T04:07:09;13.10;99.90
24682;DHT22;12802;53.390;-2.328;2023-05-07T04:09:39;13.10;99.90
24682;DHT22;12802;53.390;-2.328;2023-05-07T04:12:05;13.10;99.90
24682;DHT22;12802;53.390;-2.328;2023-05-07T04:14:31;13.10;99.90
24682;DHT22;12802;53.390;-2.328;2023-05-07T04:16:58;13.10;99.90
24682;DHT22;12802;53.390;-2.328;2023-05-07T04:19:25;13.10;99.90
24682;DHT22;12802;53.390;-2.328;2023-05-07T04:21:52;13.00;99.90
24682;DHT22;12802;53.390;-2.328;2023-05-07T04:24:17;13.00;99.90
24682;DHT22;12802;53.390;-2.328;2023-05-07T04:26:44;13.00;99.90
24682;DHT22;12802;53.390;-2.328;2023-05-07T04:29:10;12.90;99.90
24682;DHT22;12802;53.390;-2.328;2023-05-07T04:31:35;12.80;99.90
24682;DHT22;12802;53.390;-2.328;2023-05-07T04:34:01;12.80;99.90
24682;DHT22;12802;53.390;-2.328;2023-05-07T04:36:27;12.70;99.90
24682;DHT22;12802;53.390;-2.328;2023-05-07T04:38:58;12.60;99.90
24682;DHT22;12802;53.390;-2.328;2023-05-07T04:41:24;12.50;99.90
24682;DHT22;12802;53.390;-2.328;2023-05-07T04:43:50;12.40;99.90
24682;DHT22;12802;53.390;-2.328;2023-05-07T04:46:19;12.30;99.90
24682;DHT22;12802;53.390;-2.328;2023-05-07T04:48:45;12.30;99.90
24682;DHT22;12802;53.390;-2.328;2023-05-07T04:51:11;12.20;99.90
24682;DHT22;12802;53.390;-2.328;2023-05-07T04:53:37;12.20;99.90
24682;DHT22;12802;53.390;-2.328;2023-05-07T04:56:03;12.10;99.90
24682;DHT22;12802;53.390;-2.328;2023-05-07T04:58:38;12.00;99.90
24682;DHT22;12802;53.390;-2.328;2023-05-07T05:01:04;12.00;99.90
24682;DHT22;12802;53.390;-2.328;2023-05-07T05:03:30;11.90;99.90
24682;DHT22;12802;53.390;-2.328;2023-05-07T05:05:56;11.90;99.90
24682;DHT22;12802;53.390;-2.328;2023-05-07T05:08:26;11.90;99.90
24682;DHT22;12802;53.390;-2.328;2023-05-07T05:10:52;11.80;99.90
24682;DHT22;12802;53.390;-2.328;2023-05-07T05:13:18;11.80;99.90
24682;DHT22;12802;53.390;-2.328;2023-05-07T05:15:44;11.80;99.90
24682;DHT22;12802;53.390;-2.328;2023-05-07T05:18:10;11.80;99.90
24682;DHT22;12802;53.390;-2.328;2023-05-07T05:20:35;11.80;99.90
24682;DHT22;12802;53.390;-2.328;2023-05-07T05:23:01;11.80;99.90
24682;DHT22;12802;53.390;-2.328;2023-05-07T05:25:28;11.80;99.90
24682;DHT22;12802;53.390;-2.328;2023-05-07T05:27:54;11.80;99.90
24682;DHT22;12802;53.390;-2.328;2023-05-07T05:30:20;11.80;99.90
24682;DHT22;12802;53.390;-2.328;2023-05-07T05:32:46;11.80;99.90
24682;DHT22;12802;53.390;-2.328;2023-05-07T05:35:12;11.90;99.90
24682;DHT22;12802;53.390;-2.328;2023-05-07T05:37:38;11.90;99.90
24682;DHT22;12802;53.390;-2.328;2023-05-07T05:40:06;11.80;99.90
24682;DHT22;12802;53.390;-2.328;2023-05-07T05:42:32;11.80;99.90
24682;DHT22;12802;53.390;-2.328;2023-05-07T05:44:57;11.80;99.90
24682;DHT22;12802;53.390;-2.328;2023-05-07T05:47:24;11.80;99.90
24682;DHT22;12802;53.390;-2.328;2023-05-07T05:49:52;11.80;99.90
24682;DHT22;12802;53.390;-2.328;2023-05-07T05:52:18;11.80;99.90
24682;DHT22;12802;53.390;-2.328;2023-05-07T05:54:43;11.80;99.90
24682;DHT22;12802;53.390;-2.328;2023-05-07T05:57:09;11.80;99.90
24682;DHT22;12802;53.390;-2.328;2023-05-07T05:59:35;11.80;99.90
24682;DHT22;12802;53.390;-2.328;2023-05-07T06:02:01;11.90;99.90
24682;DHT22;12802;53.390;-2.328;2023-05-07T06:04:26;11.90;99.90
24682;DHT22;12802;53.390;-2.328;2023-05-07T06:06:52;11.90;99.90
24682;DHT22;12802;53.390;-2.328;2023-05-07T06:09:18;12.00;99.90
24682;DHT22;12802;53.390;-2.328;2023-05-07T06:11:44;12.00;99.90
24682;DHT22;12802;53.390;-2.328;2023-05-07T06:14:11;12.00;99.90
24682;DHT22;12802;53.390;-2.328;2023-05-07T06:16:37;12.10;99.90
24682;DHT22;12802;53.390;-2.328;2023-05-07T06:19:04;12.10;99.90
24682;DHT22;12802;53.390;-2.328;2023-05-07T06:21:30;12.10;99.90
24682;DHT22;12802;53.390;-2.328;2023-05-07T06:23:57;12.10;99.90
24682;DHT22;12802;53.390;-2.328;2023-05-07T06:26:23;12.20;99.90
24682;DHT22;12802;53.390;-2.328;2023-05-07T06:28:48;12.20;99.90
24682;DHT22;12802;53.390;-2.328;2023-05-07T06:31:16;12.20;99.90
24682;DHT22;12802;53.390;-2.328;2023-05-07T06:33:46;12.20;99.90
24682;DHT22;12802;53.390;-2.328;2023-05-07T06:36:12;12.30;99.90
24682;DHT22;12802;53.390;-2.328;2023-05-07T06:38:38;12.20;99.90
24682;DHT22;12802;53.390;-2.328;2023-05-07T06:41:05;12.30;99.90
24682;DHT22;12802;53.390;-2.328;2023-05-07T06:43:30;12.40;99.90
24682;DHT22;12802;53.390;-2.328;2023-05-07T06:46:13;12.40;99.90
24682;DHT22;12802;53.390;-2.328;2023-05-07T06:48:38;12.50;99.90
24682;DHT22;12802;53.390;-2.328;2023-05-07T06:51:05;12.50;99.90
24682;DHT22;12802;53.390;-2.328;2023-05-07T06:53:31;12.60;99.90
24682;DHT22;12802;53.390;-2.328;2023-05-07T06:55:59;12.80;99.90
24682;DHT22;12802;53.390;-2.328;2023-05-07T06:58:25;12.90;99.90
24682;DHT22;12802;53.390;-2.328;2023-05-07T07:00:51;12.90;99.90
24682;DHT22;12802;53.390;-2.328;2023-05-07T07:03:16;13.00;99.90
24682;DHT22;12802;53.390;-2.328;2023-05-07T07:05:43;13.10;99.90
24682;DHT22;12802;53.390;-2.328;2023-05-07T07:08:09;13.10;99.90
24682;DHT22;12802;53.390;-2.328;2023-05-07T07:10:36;13.20;99.90
24682;DHT22;12802;53.390;-2.328;2023-05-07T07:13:02;13.30;99.90
24682;DHT22;12802;53.390;-2.328;2023-05-07T07:15:28;13.20;99.90
24682;DHT22;12802;53.390;-2.328;2023-05-07T07:17:55;13.30;99.90
24682;DHT22;12802;53.390;-2.328;2023-05-07T07:20:21;13.20;99.90
24682;DHT22;12802;53.390;-2.328;2023-05-07T07:22:47;13.30;99.90
24682;DHT22;12802;53.390;-2.328;2023-05-07T07:25:15;13.40;99.90
24682;DHT22;12802;53.390;-2.328;2023-05-07T07:27:40;13.40;99.90
24682;DHT22;12802;53.390;-2.328;2023-05-07T07:30:07;13.40;99.90
24682;DHT22;12802;53.390;-2.328;2023-05-07T07:32:35;13.50;99.90
24682;DHT22;12802;53.390;-2.328;2023-05-07T07:35:01;13.50;99.90
24682;DHT22;12802;53.390;-2.328;2023-05-07T07:37:27;13.50;99.90
24682;DHT22;12802;53.390;-2.328;2023-05-07T07:39:53;13.60;99.90
24682;DHT22;12802;53.390;-2.328;2023-05-07T07:42:20;13.60;99.90
24682;DHT22;12802;53.390;-2.328;2023-05-07T07:44:46;13.50;99.90
24682;DHT22;12802;53.390;-2.328;2023-05-07T07:47:13;13.50;99.90
24682;DHT22;12802;53.390;-2.328;2023-05-07T07:49:41;13.50;99.90
24682;DHT22;12802;53.390;-2.328;2023-05-07T07:52:08;13.60;99.90
24682;DHT22;12802;53.390;-2.328;2023-05-07T07:54:35;13.50;99.90
24682;DHT22;12802;53.390;-2.328;2023-05-07T07:57:02;13.50;99.90
24682;DHT22;12802;53.390;-2.328;2023-05-07T07:59:30;13.60;99.90
24682;DHT22;12802;53.390;-2.328;2023-05-07T08:01:56;13.70;99.90
24682;DHT22;12802;53.390;-2.328;2023-05-07T08:04:23;13.60;99.90
24682;DHT22;12802;53.390;-2.328;2023-05-07T08:06:50;13.70;99.90
24682;DHT22;12802;53.390;-2.328;2023-05-07T08:09:15;13.80;99.90
24682;DHT22;12802;53.390;-2.328;2023-05-07T08:11:41;13.80;99.90
24682;DHT22;12802;53.390;-2.328;2023-05-07T08:14:07;13.80;99.90
24682;DHT22;12802;53.390;-2.328;2023-05-07T08:16:33;13.80;99.90
24682;DHT22;12802;53.390;-2.328;2023-05-07T08:19:00;13.80;99.90
24682;DHT22;12802;53.390;-2.328;2023-05-07T08:21:25;13.90;99.90
24682;DHT22;12802;53.390;-2.328;2023-05-07T08:23:51;14.00;99.90
24682;DHT22;12802;53.390;-2.328;2023-05-07T08:26:17;14.00;99.90
24682;DHT22;12802;53.390;-2.328;2023-05-07T08:28:43;14.10;99.90
24682;DHT22;12802;53.390;-2.328;2023-05-07T08:31:08;14.20;99.90
24682;DHT22;12802;53.390;-2.328;2023-05-07T08:33:37;14.20;99.90
24682;DHT22;12802;53.390;-2.328;2023-05-07T08:36:04;14.20;99.90
24682;DHT22;12802;53.390;-2.328;2023-05-07T08:38:29;14.30;99.90
24682;DHT22;12802;53.390;-2.328;2023-05-07T08:40:55;14.40;99.90
24682;DHT22;12802;53.390;-2.328;2023-05-07T08:43:21;14.40;99.90
24682;DHT22;12802;53.390;-2.328;2023-05-07T08:45:52;14.50;99.90
24682;DHT22;12802;53.390;-2.328;2023-05-07T08:48:19;14.50;99.90
24682;DHT22;12802;53.390;-2.328;2023-05-07T08:50:53;14.60;99.90
24682;DHT22;12802;53.390;-2.328;2023-05-07T08:53:19;14.60;99.90
24682;DHT22;12802;53.390;-2.328;2023-05-07T08:55:46;14.60;99.90
24682;DHT22;12802;53.390;-2.328;2023-05-07T08:58:13;14.70;99.90
24682;DHT22;12802;53.390;-2.328;2023-05-07T09:00:39;14.70;99.90
24682;DHT22;12802;53.390;-2.328;2023-05-07T09:03:06;14.70;99.90
24682;DHT22;12802;53.390;-2.328;2023-05-07T09:05:31;14.70;99.90
24682;DHT22;12802;53.390;-2.328;2023-05-07T09:08:04;14.90;99.90
24682;DHT22;12802;53.390;-2.328;2023-05-07T09:10:32;14.90;99.90
24682;DHT22;12802;53.390;-2.328;2023-05-07T09:12:58;15.00;99.90
24682;DHT22;12802;53.390;-2.328;2023-05-07T09:15:23;15.10;99.90
24682;DHT22;12802;53.390;-2.328;2023-05-07T09:17:49;15.10;99.90
24682;DHT22;12802;53.390;-2.328;2023-05-07T09:20:15;15.10;99.90
24682;DHT22;12802;53.390;-2.328;2023-05-07T09:22:41;15.00;99.90
24682;DHT22;12802;53.390;-2.328;2023-05-07T09:25:11;15.00;99.90
24682;DHT22;12802;53.390;-2.328;2023-05-07T09:27:38;14.90;99.90
24682;DHT22;12802;53.390;-2.328;2023-05-07T09:30:04;15.10;99.90
24682;DHT22;12802;53.390;-2.328;2023-05-07T09:32:34;15.30;99.90
24682;DHT22;12802;53.390;-2.328;2023-05-07T09:35:00;15.60;99.90
24682;DHT22;12802;53.390;-2.328;2023-05-07T09:37:27;15.80;99.90
24682;DHT22;12802;53.390;-2.328;2023-05-07T09:39:52;16.00;99.90
24682;DHT22;12802;53.390;-2.328;2023-05-07T09:42:25;16.10;99.90
24682;DHT22;12802;53.390;-2.328;2023-05-07T09:44:53;16.30;99.90
24682;DHT22;12802;53.390;-2.328;2023-05-07T09:47:23;16.30;99.90
24682;DHT22;12802;53.390;-2.328;2023-05-07T09:49:53;16.30;99.90
24682;DHT22;12802;53.390;-2.328;2023-05-07T09:52:20;16.60;99.90
24682;DHT22;12802;53.390;-2.328;2023-05-07T09:54:49;16.70;99.90
24682;DHT22;12802;53.390;-2.328;2023-05-07T09:57:17;16.60;99.90
24682;DHT22;12802;53.390;-2.328;2023-05-07T09:59:47;16.50;99.90
24682;DHT22;12802;53.390;-2.328;2023-05-07T10:02:17;16.40;99.90
24682;DHT22;12802;53.390;-2.328;2023-05-07T10:04:50;16.20;99.90
24682;DHT22;12802;53.390;-2.328;2023-05-07T10:07:19;16.20;99.90
24682;DHT22;12802;53.390;-2.328;2023-05-07T10:09:46;16.10;99.90
24682;DHT22;12802;53.390;-2.328;2023-05-07T10:12:21;16.10;99.90
24682;DHT22;12802;53.390;-2.328;2023-05-07T10:14:47;16.00;99.90
24682;DHT22;12802;53.390;-2.328;2023-05-07T10:17:15;16.00;99.90
24682;DHT22;12802;53.390;-2.328;2023-05-07T10:19:43;16.00;99.90
24682;DHT22;12802;53.390;-2.328;2023-05-07T10:22:09;16.00;99.90
24682;DHT22;12802;53.390;-2.328;2023-05-07T10:24:41;16.00;99.90
24682;DHT22;12802;53.390;-2.328;2023-05-07T10:27:12;16.10;99.90
24682;DHT22;12802;53.390;-2.328;2023-05-07T10:29:54;16.50;99.90
24682;DHT22;12802;53.390;-2.328;2023-05-07T10:34:51;16.30;99.90
24682;DHT22;12802;53.390;-2.328;2023-05-07T10:37:19;16.40;99.90
24682;DHT22;12802;53.390;-2.328;2023-05-07T10:39:45;16.40;99.90
24682;DHT22;12802;53.390;-2.328;2023-05-07T10:42:11;16.40;99.90
24682;DHT22;12802;53.390;-2.328;2023-05-07T10:44:39;16.50;99.90
24682;DHT22;12802;53.390;-2.328;2023-05-07T10:47:10;16.70;99.90
24682;DHT22;12802;53.390;-2.328;2023-05-07T10:52:21;17.10;99.90
24682;DHT22;12802;53.390;-2.328;2023-05-07T10:58:22;17.80;99.90
24682;DHT22;12802;53.390;-2.328;2023-05-07T11:00:55;17.50;99.90
24682;DHT22;12802;53.390;-2.328;2023-05-07T11:03:27;17.30;99.90
24682;DHT22;12802;53.390;-2.328;2023-05-07T11:06:13;17.40;99.90
24682;DHT22;12802;53.390;-2.328;2023-05-07T11:08:53;17.70;99.90
24682;DHT22;12802;53.390;-2.328;2023-05-07T11:14:13;18.40;99.90
24682;DHT22;12802;53.390;-2.328;2023-05-07T11:16:46;18.30;99.90
24682;DHT22;12802;53.390;-2.328;2023-05-07T11:22:05;18.20;99.90
24682;DHT22;12802;53.390;-2.328;2023-05-07T11:25:02;18.20;99.90
24682;DHT22;12802;53.390;-2.328;2023-05-07T11:27:29;18.20;99.90
24682;DHT22;12802;53.390;-2.328;2023-05-07T11:29:56;18.10;99.90
24682;DHT22;12802;53.390;-2.328;2023-05-07T11:32:25;17.90;99.90
24682;DHT22;12802;53.390;-2.328;2023-05-07T11:34:53;17.90;99.90
24682;DHT22;12802;53.390;-2.328;2023-05-07T11:37:19;18.10;99.90
24682;DHT22;12802;53.390;-2.328;2023-05-07T11:40:06;18.50;99.90
24682;DHT22;12802;53.390;-2.328;2023-05-07T11:42:37;18.70;99.90
24682;DHT22;12802;53.390;-2.328;2023-05-07T11:45:03;18.50;99.90
24682;DHT22;12802;53.390;-2.328;2023-05-07T11:47:32;18.30;99.90
24682;DHT22;12802;53.390;-2.328;2023-05-07T11:50:02;18.20;99.90
24682;DHT22;12802;53.390;-2.328;2023-05-07T11:52:28;18.20;99.90
24682;DHT22;12802;53.390;-2.328;2023-05-07T11:54:57;18.00;99.90
24682;DHT22;12802;53.390;-2.328;2023-05-07T11:57:23;17.90;99.90
24682;DHT22;12802;53.390;-2.328;2023-05-07T11:59:59;18.00;99.90
24682;DHT22;12802;53.390;-2.328;2023-05-07T12:02:25;18.50;99.90
24682;DHT22;12802;53.390;-2.328;2023-05-07T12:04:54;18.90;99.90
24682;DHT22;12802;53.390;-2.328;2023-05-07T12:07:20;19.10;99.90
24682;DHT22;12802;53.390;-2.328;2023-05-07T12:09:46;19.40;99.90
24682;DHT22;12802;53.390;-2.328;2023-05-07T12:12:12;19.60;99.90
24682;DHT22;12802;53.390;-2.328;2023-05-07T12:14:41;19.80;99.90
24682;DHT22;12802;53.390;-2.328;2023-05-07T12:17:07;19.90;99.90
24682;DHT22;12802;53.390;-2.328;2023-05-07T12:19:33;20.30;99.90
24682;DHT22;12802;53.390;-2.328;2023-05-07T12:21:59;20.20;99.90
24682;DHT22;12802;53.390;-2.328;2023-05-07T12:24:25;20.10;99.90
24682;DHT22;12802;53.390;-2.328;2023-05-07T12:26:51;20.30;99.90
24682;DHT22;12802;53.390;-2.328;2023-05-07T12:29:16;20.30;99.90
24682;DHT22;12802;53.390;-2.328;2023-05-07T12:31:42;19.90;99.90
24682;DHT22;12802;53.390;-2.328;2023-05-07T12:34:08;19.40;99.90
24682;DHT22;12802;53.390;-2.328;2023-05-07T12:36:39;19.30;99.90
24682;DHT22;12802;53.390;-2.328;2023-05-07T12:39:06;19.20;99.90
24682;DHT22;12802;53.390;-2.328;2023-05-07T12:41:35;19.00;99.90
24682;DHT22;12802;53.390;-2.328;2023-05-07T12:44:01;18.80;99.90
24682;DHT22;12802;53.390;-2.328;2023-05-07T12:46:29;18.80;99.90
24682;DHT22;12802;53.390;-2.328;2023-05-07T12:48:54;18.60;99.90
24682;DHT22;12802;53.390;-2.328;2023-05-07T12:51:20;18.60;99.90
24682;DHT22;12802;53.390;-2.328;2023-05-07T12:53:46;18.70;99.90
24682;DHT22;12802;53.390;-2.328;2023-05-07T12:56:11;18.80;99.90
24682;DHT22;12802;53.390;-2.328;2023-05-07T12:58:37;18.90;99.90
24682;DHT22;12802;53.390;-2.328;2023-05-07T13:01:06;18.90;99.90
24682;DHT22;12802;53.390;-2.328;2023-05-07T13:03:36;19.10;99.90
24682;DHT22;12802;53.390;-2.328;2023-05-07T13:06:02;19.20;99.90
24682;DHT22;12802;53.390;-2.328;2023-05-07T13:08:32;19.10;99.90
24682;DHT22;12802;53.390;-2.328;2023-05-07T13:10:58;18.90;99.90
24682;DHT22;12802;53.390;-2.328;2023-05-07T13:13:25;18.90;99.90
24682;DHT22;12802;53.390;-2.328;2023-05-07T13:15:51;18.80;99.90
24682;DHT22;12802;53.390;-2.328;2023-05-07T13:18:16;18.80;99.90
24682;DHT22;12802;53.390;-2.328;2023-05-07T13:20:42;18.80;99.90
24682;DHT22;12802;53.390;-2.328;2023-05-07T13:23:08;19.00;99.90
24682;DHT22;12802;53.390;-2.328;2023-05-07T13:25:33;19.10;99.90
24682;DHT22;12802;53.390;-2.328;2023-05-07T13:27:59;19.10;99.90
24682;DHT22;12802;53.390;-2.328;2023-05-07T13:30:25;18.90;99.90
24682;DHT22;12802;53.390;-2.328;2023-05-07T13:32:52;18.90;99.90
24682;DHT22;12802;53.390;-2.328;2023-05-07T13:35:17;18.60;99.90
24682;DHT22;12802;53.390;-2.328;2023-05-07T13:37:43;18.90;99.90
24682;DHT22;12802;53.390;-2.328;2023-05-07T13:40:08;19.20;99.90
24682;DHT22;12802;53.390;-2.328;2023-05-07T13:42:34;19.50;99.90
24682;DHT22;12802;53.390;-2.328;2023-05-07T13:45:00;19.90;99.90
24682;DHT22;12802;53.390;-2.328;2023-05-07T13:47:26;20.20;99.90
24682;DHT22;12802;53.390;-2.328;2023-05-07T13:49:51;20.70;99.90
24682;DHT22;12802;53.390;-2.328;2023-05-07T13:52:17;20.80;99.90
24682;DHT22;12802;53.390;-2.328;2023-05-07T13:54:42;20.80;99.90
24682;DHT22;12802;53.390;-2.328;2023-05-07T13:57:08;20.90;99.90
24682;DHT22;12802;53.390;-2.328;2023-05-07T13:59:34;20.90;99.90
24682;DHT22;12802;53.390;-2.328;2023-05-07T14:02:00;20.90;99.90
24682;DHT22;12802;53.390;-2.328;2023-05-07T14:04:25;20.90;99.90
24682;DHT22;12802;53.390;-2.328;2023-05-07T14:06:51;21.00;99.90
24682;DHT22;12802;53.390;-2.328;2023-05-07T14:09:16;20.70;99.90
24682;DHT22;12802;53.390;-2.328;2023-05-07T14:11:42;20.70;99.90
24682;DHT22;12802;53.390;-2.328;2023-05-07T14:14:08;20.50;99.90
24682;DHT22;12802;53.390;-2.328;2023-05-07T14:16:36;20.40;99.90
24682;DHT22;12802;53.390;-2.328;2023-05-07T14:19:02;20.30;99.90
24682;DHT22;12802;53.390;-2.328;2023-05-07T14:21:27;20.20;99.90
24682;DHT22;12802;53.390;-2.328;2023-05-07T14:23:53;20.30;99.90
24682;DHT22;12802;53.390;-2.328;2023-05-07T14:26:19;20.30;99.90
24682;DHT22;12802;53.390;-2.328;2023-05-07T14:28:46;20.10;99.90
24682;DHT22;12802;53.390;-2.328;2023-05-07T14:31:12;20.20;99.90
24682;DHT22;12802;53.390;-2.328;2023-05-07T14:33:37;20.60;99.90
24682;DHT22;12802;53.390;-2.328;2023-05-07T14:36:03;21.10;99.90
24682;DHT22;12802;53.390;-2.328;2023-05-07T14:38:29;21.60;99.90
24682;DHT22;12802;53.390;-2.328;2023-05-07T14:40:55;22.10;99.90
24682;DHT22;12802;53.390;-2.328;2023-05-07T14:43:21;22.70;99.90
24682;DHT22;12802;53.390;-2.328;2023-05-07T14:45:48;23.50;99.90
24682;DHT22;12802;53.390;-2.328;2023-05-07T14:48:15;22.90;99.90
24682;DHT22;12802;53.390;-2.328;2023-05-07T14:50:41;22.70;99.90
24682;DHT22;12802;53.390;-2.328;2023-05-07T14:53:06;23.70;99.90
24682;DHT22;12802;53.390;-2.328;2023-05-07T14:55:32;24.40;99.90
24682;DHT22;12802;53.390;-2.328;2023-05-07T14:57:58;23.60;99.90
24682;DHT22;12802;53.390;-2.328;2023-05-07T15:00:24;22.90;99.90
24682;DHT22;12802;53.390;-2.328;2023-05-07T15:02:50;23.50;99.90
24682;DHT22;12802;53.390;-2.328;2023-05-07T15:05:15;23.50;99.90
24682;DHT22;12802;53.390;-2.328;2023-05-07T15:07:41;22.30;99.90
24682;DHT22;12802;53.390;-2.328;2023-05-07T15:10:07;21.70;99.90
24682;DHT22;12802;53.390;-2.328;2023-05-07T15:12:32;21.30;99.90
24682;DHT22;12802;53.390;-2.328;2023-05-07T15:14:58;21.50;99.90
24682;DHT22;12802;53.390;-2.328;2023-05-07T15:17:23;22.50;99.90
24682;DHT22;12802;53.390;-2.328;2023-05-07T15:19:49;23.00;99.90
24682;DHT22;12802;53.390;-2.328;2023-05-07T15:22:15;22.90;99.90
24682;DHT22;12802;53.390;-2.328;2023-05-07T15:24:40;22.70;99.90
24682;DHT22;12802;53.390;-2.328;2023-05-07T15:27:06;23.00;99.90